George S. — A8TJ9 — position and weather

sailwx.info

Track history (hours):
 
Tides and Currents Weather Stations Pressure Air Temp Water Temp Dewpoint Dewpoint Depression Visibility Wind Speed Wind Dir Waves Ship Positions

George S.

Last reported at 2016-May-13 11:10 UTC. Time now 2016-May-27 00:25 UTC.
Position N 27°36' W 015°24'.
Warning: this ship's position is 13 days out of date.

Length 274 m; draft 9 m.

Type: Tanker. MMSI: 636014372.

Date/timePositionNaut miles runAvg speedWind from/ knotsBaromVisibWave heightAir tempDewpointWater temp
2016-May-13 11:10N 27°36' W 015°24'813.1
2016-May-13 10:33N 27°43' W 015°20'  
2016-May-11 02:23N 37°32' W 009°12'1011.9
2016-May-11 01:33N 37°40' W 009°03'1111.2
2016-May-11 00:33N 37°49' W 008°56'8 7.5
2016-May-10 23:32N 37°57' W 008°53'0 0.0
2016-May-10 22:32N 37°57' W 008°53'0 0.0
2016-May-10 21:32N 37°57' W 008°53'0 0.0
2016-May-10 20:32N 37°57' W 008°53'0 0.0
2016-May-10 19:32N 37°57' W 008°53'0 0.0
2016-May-10 18:32N 37°57' W 008°53'0 0.0
2016-May-10 17:32N 37°57' W 008°53'0 0.0
2016-May-10 16:32N 37°57' W 008°53'0 0.0
2016-May-10 15:32N 37°57' W 008°53'0 0.0
2016-May-10 14:32N 37°57' W 008°53'0 0.0
2016-May-10 13:32N 37°57' W 008°53'0 0.0
2016-May-10 12:32N 37°57' W 008°53'0 0.0
2016-May-10 11:32N 37°57' W 008°53'0 0.0
2016-May-10 10:32N 37°57' W 008°53'0 0.0
2016-May-10 09:32N 37°57' W 008°53'0 0.0
2016-May-10 08:32N 37°57' W 008°53'0 0.0
2016-May-10 07:32N 37°57' W 008°53'0 0.0
2016-May-10 06:32N 37°57' W 008°53'0 0.0
2016-May-10 05:32N 37°57' W 008°53'0 0.0
2016-May-10 04:32N 37°57' W 008°53'0 0.0
2016-May-10 03:32N 37°57' W 008°53'0 0.0
2016-May-10 02:29N 37°57' W 008°53'0 0.0
2016-May-10 01:32N 37°57' W 008°53'0 0.0
2016-May-10 00:32N 37°57' W 008°53'0 0.0
2016-May-09 23:32N 37°57' W 008°53'0 0.0
2016-May-09 22:32N 37°57' W 008°53'0 0.0
2016-May-09 21:32N 37°57' W 008°53'0 0.0
2016-May-09 20:32N 37°57' W 008°53'0 0.0
2016-May-09 19:32N 37°57' W 008°53'0 0.0
2016-May-09 18:32N 37°57' W 008°53'0 0.0
2016-May-09 17:29N 37°57' W 008°53'0 0.0
2016-May-09 16:32N 37°57' W 008°53'0 0.0
2016-May-09 15:32N 37°57' W 008°53'0 0.0
2016-May-09 14:32N 37°57' W 008°53'0 0.0
2016-May-09 13:32N 37°57' W 008°53'0 0.0
2016-May-09 12:29N 37°57' W 008°53'0 0.0
2016-May-09 11:32N 37°57' W 008°53'0 0.0
2016-May-09 10:32N 37°57' W 008°53'0 0.2
2016-May-09 09:33N 37°57' W 008°53'2 2.2
2016-May-09 08:33N 37°54' W 008°53'8 8.1
2016-May-09 07:34N 37°47' W 008°56'1211.9
2016-May-09 06:33N 37°37' W 009°05'195 8.0
2016-May-08 06:17N 35°58' W 005°36'6 8.7
2016-May-08 05:33N 35°60' W 005°29'10 9.6
2016-May-08 04:34N 36°02' W 005°17'  
2016-May-05 21:32N 37°45' E 008°10'1211.9
2016-May-05 20:34N 37°46' E 008°24'2512.0
2016-May-05 18:27N 37°44' E 008°56'1112.6
2016-May-05 17:33N 37°43' E 009°11'1212.3
2016-May-05 16:33N 37°42' E 009°26'1212.2
2016-May-05 15:33N 37°41' E 009°42'1212.3
2016-May-05 14:32N 37°40' E 009°57'1212.1
2016-May-05 13:31N 37°39' E 010°13'15011.4
2016-May-05 00:23N 36°46' E 013°09'1011.4
2016-May-04 23:31N 36°43' E 013°21'1111.5
2016-May-04 22:33N 36°40' E 013°34'1111.3
2016-May-04 21:34N 36°36' E 013°47'1111.2
2016-May-04 20:34N 36°33' E 014°00'1111.0
2016-May-04 19:33N 36°29' E 014°13'1111.0
2016-May-04 18:33N 36°26' E 014°26'1111.3
2016-May-04 17:33N 36°24' E 014°40'  
Track history (hours):
 
Tides and Currents Weather Stations Pressure Air Temp Water Temp Dewpoint Dewpoint Depression Visibility Wind Speed Wind Dir Waves Ship Positions

George S.

Last reported at 2016-May-13 11:10 UTC. Time now 2016-May-27 00:25 UTC.
Position N 27°36' W 015°24'.
Warning: this ship's position is 13 days out of date.

Length 274 m; draft 9 m.

Type: Tanker. MMSI: 636014372.

Date/timePositionNaut miles runAvg speedWind from/ knotsBaromVisibWave heightAir tempDewpointWater temp
2016-May-13 11:10N 27°36' W 015°24'813.1
2016-May-13 10:33N 27°43' W 015°20'  
2016-May-11 02:23N 37°32' W 009°12'1011.9
2016-May-11 01:33N 37°40' W 009°03'1111.2
2016-May-11 00:33N 37°49' W 008°56'8 7.5
2016-May-10 23:32N 37°57' W 008°53'0 0.0
2016-May-10 22:32N 37°57' W 008°53'0 0.0
2016-May-10 21:32N 37°57' W 008°53'0 0.0
2016-May-10 20:32N 37°57' W 008°53'0 0.0
2016-May-10 19:32N 37°57' W 008°53'0 0.0
2016-May-10 18:32N 37°57' W 008°53'0 0.0
2016-May-10 17:32N 37°57' W 008°53'0 0.0
2016-May-10 16:32N 37°57' W 008°53'0 0.0
2016-May-10 15:32N 37°57' W 008°53'0 0.0
2016-May-10 14:32N 37°57' W 008°53'0 0.0
2016-May-10 13:32N 37°57' W 008°53'0 0.0
2016-May-10 12:32N 37°57' W 008°53'0 0.0
2016-May-10 11:32N 37°57' W 008°53'0 0.0
2016-May-10 10:32N 37°57' W 008°53'0 0.0
2016-May-10 09:32N 37°57' W 008°53'0 0.0
2016-May-10 08:32N 37°57' W 008°53'0 0.0
2016-May-10 07:32N 37°57' W 008°53'0 0.0
2016-May-10 06:32N 37°57' W 008°53'0 0.0
2016-May-10 05:32N 37°57' W 008°53'0 0.0
2016-May-10 04:32N 37°57' W 008°53'0 0.0
2016-May-10 03:32N 37°57' W 008°53'0 0.0
2016-May-10 02:29N 37°57' W 008°53'0 0.0
2016-May-10 01:32N 37°57' W 008°53'0 0.0
2016-May-10 00:32N 37°57' W 008°53'0 0.0
2016-May-09 23:32N 37°57' W 008°53'0 0.0
2016-May-09 22:32N 37°57' W 008°53'0 0.0
2016-May-09 21:32N 37°57' W 008°53'0 0.0
2016-May-09 20:32N 37°57' W 008°53'0 0.0
2016-May-09 19:32N 37°57' W 008°53'0 0.0
2016-May-09 18:32N 37°57' W 008°53'0 0.0
2016-May-09 17:29N 37°57' W 008°53'0 0.0
2016-May-09 16:32N 37°57' W 008°53'0 0.0
2016-May-09 15:32N 37°57' W 008°53'0 0.0
2016-May-09 14:32N 37°57' W 008°53'0 0.0
2016-May-09 13:32N 37°57' W 008°53'0 0.0
2016-May-09 12:29N 37°57' W 008°53'0 0.0
2016-May-09 11:32N 37°57' W 008°53'0 0.0
2016-May-09 10:32N 37°57' W 008°53'0 0.2
2016-May-09 09:33N 37°57' W 008°53'2 2.2
2016-May-09 08:33N 37°54' W 008°53'8 8.1
2016-May-09 07:34N 37°47' W 008°56'1211.9
2016-May-09 06:33N 37°37' W 009°05'195 8.0
2016-May-08 06:17N 35°58' W 005°36'6 8.7
2016-May-08 05:33N 35°60' W 005°29'10 9.6
2016-May-08 04:34N 36°02' W 005°17'  
2016-May-05 21:32N 37°45' E 008°10'1211.9
2016-May-05 20:34N 37°46' E 008°24'2512.0
2016-May-05 18:27N 37°44' E 008°56'1112.6
2016-May-05 17:33N 37°43' E 009°11'1212.3
2016-May-05 16:33N 37°42' E 009°26'1212.2
2016-May-05 15:33N 37°41' E 009°42'1212.3
2016-May-05 14:32N 37°40' E 009°57'1212.1
2016-May-05 13:31N 37°39' E 010°13'15011.4
2016-May-05 00:23N 36°46' E 013°09'1011.4
2016-May-04 23:31N 36°43' E 013°21'1111.5
2016-May-04 22:33N 36°40' E 013°34'1111.3
2016-May-04 21:34N 36°36' E 013°47'1111.2
2016-May-04 20:34N 36°33' E 014°00'1111.0
2016-May-04 19:33N 36°29' E 014°13'1111.0
2016-May-04 18:33N 36°26' E 014°26'1111.3
2016-May-04 17:33N 36°24' E 014°40'  

Dump ship's entire track history